Ana Sayfa
METAR-TAF:

METAR-TAF

Havaalanları :

Çiğli Hava Üssü

İzmir, Türkiye

Enlem: 38-30N, Boylam: 027-01E, yükseklik: 5 m

METAR: eksik

Saat: 19:44 (16:44 UTC)

Tahmin

Rapor saat 13:40 UTC de 3 saat ve 4 dakika önce yapıldı.
Ayın 23'si saat 15 UTC'den ayın 23'si saat 24 UTC'ye kadar geçerli Tahmin
Rüzgar batıdan 12 kt
Görüş mesafesi 10 km veya daha fazla
4000 ft yükseklikte az bulutlu
Dönüşüyor
ayın 23'si saat 17 UTC'den ayın 23'si saat 19 UTC'ye kadar
Rüzgar değişken yönden 2 kt
Görüş mesafesi 10 km veya daha fazla
1500 m altında bulut yok ve kümülonimbus yok

TAF: LTBL 231340Z 2315/2324 28012KT 9999 FEW040 BECMG 2317/2319 VRB02KT CAVOK

4.000'den fazla havaalanı için hava durumu gözlemleri ve tahminleri (METAR ve TAF raporları).

Kullanılabilir istasyonlar harita üzerinde sarı ve kırmızı noktalarla gösterilir.

İstasyonun adını görmek için fareyi noktanın üzerinde gezdirin.

Sonrasında hava gözlem ve tahminlerini görmek için tıklayın.

Haritayı değiştirmek için: yaklaştırmak için siyah artı işaretli yeşil düğmeye ve uzaklaştırmak için de eksi işaretli düğmeye hızla tıklayın; bitişik haritalar için yeşil okları kullanın.


METAR-TAF: